AirNav   Bose ProFlight Series 2 Headset
 
 1466 users online  

FD06 Lake Bird Heliport
Lutz, Florida, USA

GOING TO LUTZ?


FAA INFORMATION EFFECTIVE 02 JANUARY 2020

Location

FAA Identifier: FD06
Lat/Long: 28-10-51.2400N 082-27-20.1600W
28-10.854000N 082-27.336000W
28.1809000,-82.4556000
(estimated)
Elevation: 70 ft. / 21 m (estimated)
Variation: 04W (2000)
From city: 4 miles S of LUTZ, FL
Time zone: UTC -5 (UTC -4 during Daylight Saving Time)
Zip code: 33549

Heliport Operations

Heliport use: Private use. Permission required prior to landing
Activation date: 06/2001
Control tower: no
ARTCC: MIAMI CENTER
FSS: SAINT PETERSBURG FLIGHT SERVICE STATION
Attendance: UNATNDD
Wind indicator: yes
Segmented circle: no
Lights: FOR PERIMETER LGTS AND FLOOD LGTS CALL 813-240-8300.

Heliport Communications

WX AWOS-3 at VDF (12 nm SE): 121.125 (813-630-0924)
WX ASOS at TPA (13 nm S): PHONE 813-873-7228
WX AWOS-3 at TPF (16 nm S): 118.925 (813-251-6824)
WX AWOS-3PT at ZPH (16 nm E): 118.975 (813-780-0031)
WX ASOS at BKV (18 nm N): 134.725 (352-799-5881)
WX AWOS-3 at PCM (19 nm SE): 120.025 (813-764-8259)

Nearby radio navigation aids

VOR radial/distance  VOR name  Freq  Var
PIEr041/20.4ST PETERSBURG VORTAC116.4005W
LALr296/26.1LAKELAND VORTAC116.0001E

 
NDB name  Hdg/Dist  Freq  Var  ID
COSME038/6.836805WTP - .--.

Heliport Services

Runway Information

Helipad H1

Dimensions: 40 x 40 ft. / 12 x 12 m
Surface: turf
Runway edge lights: PERI
Traffic pattern: leftleft

Heliport Ownership and Management from official FAA records

Ownership: Privately-owned
Owner: CYNTHIA GRECO
1630 DAIQUIRI LN
LUTZ, FL 33549
Phone 813-240-8300
Manager: COREY KEMPTON
1640 DAIQUIRI LN
LUTZ, FL 33549
Phone 813-263-4588

Heliport Operational Statistics

Aircraft based on the field: 1
Helicopters: 1
    

Additional Remarks

FOR CD CTC TAMPA APCH AT 813-878-2528

Instrument Procedures

There are no published instrument procedures at FD06.

Some nearby airports with instrument procedures:

KVDF - Tampa Executive Airport (12 nm SE)
KTPA - Tampa International Airport (13 nm S)
KTPF - Peter O Knight Airport (16 nm S)
KZPH - Zephyrhills Municipal Airport (16 nm E)
KBKV - Brooksville-Tampa Bay Regional Airport (18 nm N)
KPCM - Plant City Airport (19 nm SE)
 
Loc | Ops | Rwys | IFR | FBO | Links
Com | Nav | Svcs | Stats | Notes


 
Area around FD06 (Lake Bird Heliport)
 
Road maps at: MapQuest Bing Google
 
Aerial photo
No photo
 
Sectional chart

 
Airport distance calculator
Flying to Lake Bird Heliport? Find the distance to fly.

From to FD06

Sunrise and sunset
Times for 21-Jan-2020
 Local
(UTC-5)
 Zulu
(UTC)
Morning civil twilight06:5811:58
Sunrise07:2312:23
Sunset18:0023:00
Evening civil twilight18:2523:25

Current date and time
Zulu (UTC)  21-Jan-2020 15:20:30
Local (UTC-5)  21-Jan-2020 10:20:30
 
METAR
KVDF 
11nm SE 
211455Z AUTO 36009KT 10SM CLR 09/02 A3029 RMK AO2
KTPA 
13nm S 
211453Z 36015KT 10SM FEW030 09/M02 A3029 RMK AO2 SLP258 T00941022 51018
KTPF 
16nm S 
211455Z AUTO 02008KT 10SM CLR 10/02 A3029 RMK AO2
KZPH 
16nm E 
211455Z AUTO 35013KT 10SM CLR 08/01 A3029 RMK A02 T00800008
KBKV 
17nm N 
211453Z 36009KT 10SM CLR 08/M02 A3031 RMK AO2 SLP262 T00831022 51017
KPCM 
19nm SE 
211455Z AUTO 36009G18KT 10SM CLR 09/03 A3029 RMK AO2
KPIE 
20nm SW 
211453Z 35010KT 10SM CLR 10/M01 A3030 RMK AO2 SLP259 T01001006 51018
KMCF 
20nm S 
211455Z 01011G17KT 10SM CLR 09/M01 A3028 RMK SLP257 52018
KCLW 
20nm SW 
211455Z AUTO 01010G14KT 10SM CLR 09/00 A3030 RMK AO2
TAF
KTPA 
13nm S 
211136Z 2112/2218 36010KT P6SM SKC FM211500 34013G21KT P6SM SKC FM212300 35011KT P6SM SKC FM220400 01011G18KT P6SM SKC FM221500 36010KT P6SM SKC
KPIE 
20nm SW 
211136Z 2112/2212 36011G18KT P6SM SKC FM211400 35013G21KT P6SM SKC FM220100 36015G25KT P6SM SKC
NOTAMs
Click for the latest NOTAMs
NOTAMs are issued by the DoD/FAA and will open in a separate window not controlled by AirNav.

 

 
 

Would you like to see your business listed on this page?

 If your business provides an interesting product or service to pilots, flight crews, aircraft, or users of the Lake Bird Heliport, you should consider listing it here.  To start the listing process, click on the button below
 
Add a business
 

Other Pages about Lake Bird Heliport

Update a link
 
Copyright © AirNav, LLC. All rights reserved. Privacy Policy  Contact